sensor_id;sensor_type;location;lat;lon;timestamp;P1;durP1;ratioP1;P2;durP2;ratioP2
13163;SDS011;6647;53.688;10.746;2022-09-16T00:00:43;6.47;;;2.70;;
13163;SDS011;6647;53.688;10.746;2022-09-16T00:02:04;10.02;;;2.83;;
13163;SDS011;6647;53.688;10.746;2022-09-16T00:03:25;5.97;;;2.58;;
13163;SDS011;6647;53.688;10.746;2022-09-16T00:04:46;8.98;;;2.47;;
13163;SDS011;6647;53.688;10.746;2022-09-16T00:06:14;10.77;;;3.30;;
13163;SDS011;6647;53.688;10.746;2022-09-16T00:07:40;9.38;;;2.72;;
13163;SDS011;6647;53.688;10.746;2022-09-16T00:09:01;7.38;;;2.90;;
13163;SDS011;6647;53.688;10.746;2022-09-16T00:10:22;8.23;;;2.70;;
13163;SDS011;6647;53.688;10.746;2022-09-16T00:11:43;9.52;;;3.10;;
13163;SDS011;6647;53.688;10.746;2022-09-16T00:13:04;7.90;;;3.22;;
13163;SDS011;6647;53.688;10.746;2022-09-16T00:14:25;8.40;;;2.95;;
13163;SDS011;6647;53.688;10.746;2022-09-16T00:15:48;7.50;;;3.20;;
13163;SDS011;6647;53.688;10.746;2022-09-16T00:17:10;10.00;;;3.25;;
13163;SDS011;6647;53.688;10.746;2022-09-16T00:18:31;6.28;;;3.70;;
13163;SDS011;6647;53.688;10.746;2022-09-16T00:19:52;8.88;;;3.45;;
13163;SDS011;6647;53.688;10.746;2022-09-16T00:21:13;14.68;;;3.92;;
13163;SDS011;6647;53.688;10.746;2022-09-16T00:22:34;7.38;;;3.95;;
13163;SDS011;6647;53.688;10.746;2022-09-16T00:23:55;5.78;;;3.40;;
13163;SDS011;6647;53.688;10.746;2022-09-16T00:25:16;11.45;;;3.67;;
13163;SDS011;6647;53.688;10.746;2022-09-16T00:26:37;9.23;;;2.95;;
13163;SDS011;6647;53.688;10.746;2022-09-16T00:27:59;8.60;;;3.33;;
13163;SDS011;6647;53.688;10.746;2022-09-16T00:29:19;10.48;;;3.63;;
13163;SDS011;6647;53.688;10.746;2022-09-16T00:30:40;14.00;;;3.42;;
13163;SDS011;6647;53.688;10.746;2022-09-16T00:32:01;8.13;;;3.30;;
13163;SDS011;6647;53.688;10.746;2022-09-16T00:33:22;17.48;;;3.20;;
13163;SDS011;6647;53.688;10.746;2022-09-16T00:34:43;12.52;;;2.95;;
13163;SDS011;6647;53.688;10.746;2022-09-16T00:36:08;6.22;;;3.20;;
13163;SDS011;6647;53.688;10.746;2022-09-16T00:37:31;8.48;;;2.90;;
13163;SDS011;6647;53.688;10.746;2022-09-16T00:38:53;9.75;;;3.30;;
13163;SDS011;6647;53.688;10.746;2022-09-16T00:40:14;14.55;;;3.30;;
13163;SDS011;6647;53.688;10.746;2022-09-16T00:41:35;6.22;;;3.00;;
13163;SDS011;6647;53.688;10.746;2022-09-16T00:42:57;10.82;;;4.03;;
13163;SDS011;6647;53.688;10.746;2022-09-16T00:46:14;7.90;;;2.50;;
13163;SDS011;6647;53.688;10.746;2022-09-16T00:47:43;11.18;;;2.65;;
13163;SDS011;6647;53.688;10.746;2022-09-16T00:49:12;9.00;;;3.00;;
13163;SDS011;6647;53.688;10.746;2022-09-16T00:50:44;4.38;;;2.20;;
13163;SDS011;6647;53.688;10.746;2022-09-16T00:52:08;2.53;;;1.77;;
13163;SDS011;6647;53.688;10.746;2022-09-16T00:53:33;6.88;;;2.65;;
13163;SDS011;6647;53.688;10.746;2022-09-16T00:54:59;8.93;;;2.28;;
13163;SDS011;6647;53.688;10.746;2022-09-16T00:56:25;5.22;;;2.15;;
13163;SDS011;6647;53.688;10.746;2022-09-16T00:57:50;6.75;;;2.22;;
13163;SDS011;6647;53.688;10.746;2022-09-16T00:59:13;7.72;;;2.67;;
13163;SDS011;6647;53.688;10.746;2022-09-16T01:00:41;3.42;;;2.60;;
13163;SDS011;6647;53.688;10.746;2022-09-16T01:02:04;7.80;;;2.13;;
13163;SDS011;6647;53.688;10.746;2022-09-16T01:03:28;11.77;;;3.08;;
13163;SDS011;6647;53.688;10.746;2022-09-16T01:04:53;8.00;;;2.53;;
13163;SDS011;6647;53.688;10.746;2022-09-16T01:06:17;8.73;;;2.70;;
13163;SDS011;6647;53.688;10.746;2022-09-16T01:07:44;13.20;;;2.13;;
13163;SDS011;6647;53.688;10.746;2022-09-16T01:09:06;6.07;;;2.80;;
13163;SDS011;6647;53.688;10.746;2022-09-16T01:10:27;11.65;;;2.45;;
13163;SDS011;6647;53.688;10.746;2022-09-16T01:11:48;11.00;;;2.90;;
13163;SDS011;6647;53.688;10.746;2022-09-16T01:13:09;6.47;;;2.20;;
13163;SDS011;6647;53.688;10.746;2022-09-16T01:14:32;8.40;;;2.45;;
13163;SDS011;6647;53.688;10.746;2022-09-16T01:16:15;7.45;;;2.35;;
13163;SDS011;6647;53.688;10.746;2022-09-16T01:19:04;10.75;;;3.05;;
13163;SDS011;6647;53.688;10.746;2022-09-16T01:22:43;9.85;;;3.10;;
13163;SDS011;6647;53.688;10.746;2022-09-16T01:32:49;10.77;;;2.60;;
13163;SDS011;6647;53.688;10.746;2022-09-16T01:35:56;10.65;;;2.75;;
13163;SDS011;6647;53.688;10.746;2022-09-16T01:37:26;10.32;;;2.58;;
13163;SDS011;6647;53.688;10.746;2022-09-16T01:40:51;9.50;;;2.55;;
13163;SDS011;6647;53.688;10.746;2022-09-16T01:42:47;10.43;;;3.00;;
13163;SDS011;6647;53.688;10.746;2022-09-16T01:44:36;12.75;;;2.63;;
13163;SDS011;6647;53.688;10.746;2022-09-16T01:46:15;13.30;;;3.25;;
13163;SDS011;6647;53.688;10.746;2022-09-16T01:47:54;10.77;;;3.85;;
13163;SDS011;6647;53.688;10.746;2022-09-16T01:49:32;17.42;;;3.60;;
13163;SDS011;6647;53.688;10.746;2022-09-16T01:51:10;14.30;;;3.42;;
13163;SDS011;6647;53.688;10.746;2022-09-16T01:52:55;9.93;;;4.15;;
13163;SDS011;6647;53.688;10.746;2022-09-16T01:54:40;12.55;;;3.70;;
13163;SDS011;6647;53.688;10.746;2022-09-16T01:57:38;9.95;;;3.55;;
13163;SDS011;6647;53.688;10.746;2022-09-16T01:59:28;10.18;;;3.67;;
13163;SDS011;6647;53.688;10.746;2022-09-16T02:00:58;14.50;;;3.90;;
13163;SDS011;6647;53.688;10.746;2022-09-16T02:02:31;8.27;;;3.65;;
13163;SDS011;6647;53.688;10.746;2022-09-16T02:04:05;9.00;;;3.55;;
13163;SDS011;6647;53.688;10.746;2022-09-16T02:05:36;11.10;;;4.03;;
13163;SDS011;6647;53.688;10.746;2022-09-16T02:07:05;10.57;;;3.75;;
13163;SDS011;6647;53.688;10.746;2022-09-16T02:10:22;9.05;;;3.45;;
13163;SDS011;6647;53.688;10.746;2022-09-16T02:11:51;7.25;;;2.90;;
13163;SDS011;6647;53.688;10.746;2022-09-16T02:13:29;9.48;;;3.15;;
13163;SDS011;6647;53.688;10.746;2022-09-16T02:14:56;6.97;;;2.85;;
13163;SDS011;6647;53.688;10.746;2022-09-16T02:16:23;9.00;;;3.20;;
13163;SDS011;6647;53.688;10.746;2022-09-16T02:17:54;12.82;;;2.70;;
13163;SDS011;6647;53.688;10.746;2022-09-16T02:19:20;6.20;;;2.47;;
13163;SDS011;6647;53.688;10.746;2022-09-16T02:20:45;6.88;;;3.03;;
13163;SDS011;6647;53.688;10.746;2022-09-16T02:22:09;8.15;;;1.83;;
13163;SDS011;6647;53.688;10.746;2022-09-16T02:23:34;12.57;;;2.90;;
13163;SDS011;6647;53.688;10.746;2022-09-16T02:25:00;7.13;;;2.15;;
13163;SDS011;6647;53.688;10.746;2022-09-16T02:26:25;12.02;;;1.95;;
13163;SDS011;6647;53.688;10.746;2022-09-16T02:27:50;11.40;;;1.92;;
13163;SDS011;6647;53.688;10.746;2022-09-16T02:29:14;7.05;;;1.70;;
13163;SDS011;6647;53.688;10.746;2022-09-16T02:30:45;9.48;;;2.03;;
13163;SDS011;6647;53.688;10.746;2022-09-16T02:32:11;9.20;;;2.00;;
13163;SDS011;6647;53.688;10.746;2022-09-16T02:33:35;8.13;;;2.40;;
13163;SDS011;6647;53.688;10.746;2022-09-16T02:35:12;12.18;;;3.10;;
13163;SDS011;6647;53.688;10.746;2022-09-16T02:36:38;5.10;;;2.10;;
13163;SDS011;6647;53.688;10.746;2022-09-16T02:38:05;7.22;;;1.60;;
13163;SDS011;6647;53.688;10.746;2022-09-16T02:39:36;12.48;;;1.95;;
13163;SDS011;6647;53.688;10.746;2022-09-16T02:41:03;8.55;;;1.90;;
13163;SDS011;6647;53.688;10.746;2022-09-16T02:42:24;6.20;;;1.85;;
13163;SDS011;6647;53.688;10.746;2022-09-16T02:43:45;9.50;;;2.28;;
13163;SDS011;6647;53.688;10.746;2022-09-16T02:45:06;5.68;;;1.80;;
13163;SDS011;6647;53.688;10.746;2022-09-16T02:46:37;3.60;;;1.88;;
13163;SDS011;6647;53.688;10.746;2022-09-16T02:48:09;6.30;;;1.65;;
13163;SDS011;6647;53.688;10.746;2022-09-16T02:49:39;7.20;;;1.83;;
13163;SDS011;6647;53.688;10.746;2022-09-16T02:52:54;6.38;;;1.95;;
13163;SDS011;6647;53.688;10.746;2022-09-16T02:55:04;6.75;;;1.83;;
13163;SDS011;6647;53.688;10.746;2022-09-16T02:56:20;6.20;;;2.20;;
13163;SDS011;6647;53.688;10.746;2022-09-16T02:57:46;2.92;;;1.70;;
13163;SDS011;6647;53.688;10.746;2022-09-16T02:59:09;7.82;;;2.80;;
13163;SDS011;6647;53.688;10.746;2022-09-16T03:00:32;9.48;;;2.22;;
13163;SDS011;6647;53.688;10.746;2022-09-16T03:01:58;3.60;;;2.33;;
13163;SDS011;6647;53.688;10.746;2022-09-16T03:03:20;7.20;;;2.15;;
13163;SDS011;6647;53.688;10.746;2022-09-16T03:04:41;11.82;;;3.60;;
13163;SDS011;6647;53.688;10.746;2022-09-16T03:07:29;5.22;;;3.40;;
13163;SDS011;6647;53.688;10.746;2022-09-16T03:08:50;9.73;;;3.03;;
13163;SDS011;6647;53.688;10.746;2022-09-16T03:10:13;6.57;;;3.35;;
13163;SDS011;6647;53.688;10.746;2022-09-16T03:13:27;8.60;;;3.70;;
13163;SDS011;6647;53.688;10.746;2022-09-16T03:15:08;7.88;;;3.80;;
13163;SDS011;6647;53.688;10.746;2022-09-16T03:20:04;8.65;;;4.05;;
13163;SDS011;6647;53.688;10.746;2022-09-16T03:21:38;7.03;;;4.45;;
13163;SDS011;6647;53.688;10.746;2022-09-16T03:26:25;9.70;;;4.72;;
13163;SDS011;6647;53.688;10.746;2022-09-16T03:28:24;9.18;;;4.80;;
13163;SDS011;6647;53.688;10.746;2022-09-16T03:29:51;6.78;;;3.95;;
13163;SDS011;6647;53.688;10.746;2022-09-16T03:35:55;7.95;;;4.80;;
13163;SDS011;6647;53.688;10.746;2022-09-16T03:37:19;10.20;;;5.28;;
13163;SDS011;6647;53.688;10.746;2022-09-16T03:38:42;8.98;;;4.50;;
13163;SDS011;6647;53.688;10.746;2022-09-16T03:40:10;7.45;;;4.45;;
13163;SDS011;6647;53.688;10.746;2022-09-16T03:41:34;11.68;;;5.20;;
13163;SDS011;6647;53.688;10.746;2022-09-16T03:42:56;7.00;;;5.20;;
13163;SDS011;6647;53.688;10.746;2022-09-16T03:44:17;11.27;;;5.43;;
13163;SDS011;6647;53.688;10.746;2022-09-16T03:45:38;15.20;;;5.90;;
13163;SDS011;6647;53.688;10.746;2022-09-16T03:47:02;10.75;;;5.90;;
13163;SDS011;6647;53.688;10.746;2022-09-16T03:48:23;13.80;;;6.50;;
13163;SDS011;6647;53.688;10.746;2022-09-16T03:49:44;9.45;;;6.55;;
13163;SDS011;6647;53.688;10.746;2022-09-16T03:51:05;12.30;;;7.03;;
13163;SDS011;6647;53.688;10.746;2022-09-16T03:52:26;14.57;;;7.07;;
13163;SDS011;6647;53.688;10.746;2022-09-16T03:53:47;14.50;;;7.22;;
13163;SDS011;6647;53.688;10.746;2022-09-16T03:55:08;13.98;;;6.90;;
13163;SDS011;6647;53.688;10.746;2022-09-16T03:56:30;14.07;;;7.95;;
13163;SDS011;6647;53.688;10.746;2022-09-16T03:57:53;12.98;;;6.43;;
13163;SDS011;6647;53.688;10.746;2022-09-16T03:59:14;14.75;;;6.10;;
13163;SDS011;6647;53.688;10.746;2022-09-16T04:00:35;13.80;;;7.30;;
13163;SDS011;6647;53.688;10.746;2022-09-16T04:01:56;15.07;;;7.30;;
13163;SDS011;6647;53.688;10.746;2022-09-16T04:03:17;11.13;;;6.60;;
13163;SDS011;6647;53.688;10.746;2022-09-16T04:04:38;16.17;;;6.82;;
13163;SDS011;6647;53.688;10.746;2022-09-16T04:05:58;12.60;;;5.65;;
13163;SDS011;6647;53.688;10.746;2022-09-16T04:07:19;10.93;;;6.07;;
13163;SDS011;6647;53.688;10.746;2022-09-16T04:08:40;19.20;;;6.78;;
13163;SDS011;6647;53.688;10.746;2022-09-16T04:10:04;15.02;;;7.13;;
13163;SDS011;6647;53.688;10.746;2022-09-16T04:11:26;9.32;;;6.15;;
13163;SDS011;6647;53.688;10.746;2022-09-16T04:12:49;13.50;;;5.78;;
13163;SDS011;6647;53.688;10.746;2022-09-16T04:14:09;14.73;;;5.55;;
13163;SDS011;6647;53.688;10.746;2022-09-16T04:15:30;11.02;;;5.95;;
13163;SDS011;6647;53.688;10.746;2022-09-16T04:16:51;9.68;;;5.45;;
13163;SDS011;6647;53.688;10.746;2022-09-16T04:18:14;13.38;;;5.25;;
13163;SDS011;6647;53.688;10.746;2022-09-16T04:19:35;14.30;;;5.32;;
13163;SDS011;6647;53.688;10.746;2022-09-16T04:20:56;15.73;;;4.90;;
13163;SDS011;6647;53.688;10.746;2022-09-16T04:22:18;13.32;;;5.78;;
13163;SDS011;6647;53.688;10.746;2022-09-16T04:23:39;12.05;;;5.43;;
13163;SDS011;6647;53.688;10.746;2022-09-16T04:25:00;10.20;;;5.05;;
13163;SDS011;6647;53.688;10.746;2022-09-16T04:26:21;8.10;;;4.70;;
13163;SDS011;6647;53.688;10.746;2022-09-16T04:27:42;9.35;;;5.00;;
13163;SDS011;6647;53.688;10.746;2022-09-16T04:29:02;11.35;;;5.00;;
13163;SDS011;6647;53.688;10.746;2022-09-16T04:30:23;10.77;;;4.38;;
13163;SDS011;6647;53.688;10.746;2022-09-16T04:31:45;6.07;;;3.60;;
13163;SDS011;6647;53.688;10.746;2022-09-16T04:33:06;11.77;;;4.80;;
13163;SDS011;6647;53.688;10.746;2022-09-16T04:34:26;13.73;;;5.03;;
13163;SDS011;6647;53.688;10.746;2022-09-16T04:35:47;6.40;;;3.45;;
13163;SDS011;6647;53.688;10.746;2022-09-16T04:37:08;9.63;;;4.00;;
13163;SDS011;6647;53.688;10.746;2022-09-16T04:38:29;6.30;;;3.97;;
13163;SDS011;6647;53.688;10.746;2022-09-16T04:39:50;5.97;;;3.38;;
13163;SDS011;6647;53.688;10.746;2022-09-16T04:41:12;13.05;;;4.40;;
13163;SDS011;6647;53.688;10.746;2022-09-16T04:42:34;10.38;;;4.13;;
13163;SDS011;6647;53.688;10.746;2022-09-16T04:43:56;11.10;;;4.47;;
13163;SDS011;6647;53.688;10.746;2022-09-16T04:45:18;7.20;;;4.20;;
13163;SDS011;6647;53.688;10.746;2022-09-16T04:46:39;10.15;;;4.93;;
13163;SDS011;6647;53.688;10.746;2022-09-16T04:48:00;8.43;;;4.72;;
13163;SDS011;6647;53.688;10.746;2022-09-16T04:49:21;10.18;;;4.65;;
13163;SDS011;6647;53.688;10.746;2022-09-16T04:50:41;12.63;;;5.15;;
13163;SDS011;6647;53.688;10.746;2022-09-16T04:52:02;8.25;;;4.55;;
13163;SDS011;6647;53.688;10.746;2022-09-16T04:53:23;11.43;;;5.55;;
13163;SDS011;6647;53.688;10.746;2022-09-16T04:54:44;10.15;;;5.35;;
13163;SDS011;6647;53.688;10.746;2022-09-16T04:56:09;12.30;;;7.22;;
13163;SDS011;6647;53.688;10.746;2022-09-16T04:57:40;15.07;;;5.90;;
13163;SDS011;6647;53.688;10.746;2022-09-16T04:59:02;14.68;;;6.40;;
13163;SDS011;6647;53.688;10.746;2022-09-16T05:00:25;13.00;;;6.07;;
13163;SDS011;6647;53.688;10.746;2022-09-16T05:01:46;11.93;;;5.75;;
13163;SDS011;6647;53.688;10.746;2022-09-16T05:03:07;10.55;;;6.20;;
13163;SDS011;6647;53.688;10.746;2022-09-16T05:04:27;15.13;;;5.95;;
13163;SDS011;6647;53.688;10.746;2022-09-16T05:05:48;10.80;;;6.18;;
13163;SDS011;6647;53.688;10.746;2022-09-16T05:07:09;17.83;;;6.82;;
13163;SDS011;6647;53.688;10.746;2022-09-16T05:08:30;15.80;;;6.20;;
13163;SDS011;6647;53.688;10.746;2022-09-16T05:09:52;13.43;;;6.05;;
13163;SDS011;6647;53.688;10.746;2022-09-16T05:11:14;6.35;;;5.75;;
13163;SDS011;6647;53.688;10.746;2022-09-16T05:12:38;15.45;;;6.32;;
13163;SDS011;6647;53.688;10.746;2022-09-16T05:13:59;13.93;;;7.35;;
13163;SDS011;6647;53.688;10.746;2022-09-16T05:15:22;11.50;;;5.80;;
13163;SDS011;6647;53.688;10.746;2022-09-16T05:16:43;14.50;;;6.30;;
13163;SDS011;6647;53.688;10.746;2022-09-16T05:18:04;13.45;;;6.90;;
13163;SDS011;6647;53.688;10.746;2022-09-16T05:19:25;12.95;;;6.20;;
13163;SDS011;6647;53.688;10.746;2022-09-16T05:20:46;9.00;;;5.75;;
13163;SDS011;6647;53.688;10.746;2022-09-16T05:22:07;9.85;;;5.75;;
13163;SDS011;6647;53.688;10.746;2022-09-16T05:23:27;8.65;;;5.43;;
13163;SDS011;6647;53.688;10.746;2022-09-16T05:24:49;13.48;;;4.65;;
13163;SDS011;6647;53.688;10.746;2022-09-16T05:26:11;11.00;;;5.78;;
13163;SDS011;6647;53.688;10.746;2022-09-16T05:27:33;13.43;;;5.85;;
13163;SDS011;6647;53.688;10.746;2022-09-16T05:28:55;16.05;;;5.10;;
13163;SDS011;6647;53.688;10.746;2022-09-16T05:30:19;9.70;;;4.63;;
13163;SDS011;6647;53.688;10.746;2022-09-16T05:31:40;6.88;;;4.43;;
13163;SDS011;6647;53.688;10.746;2022-09-16T05:33:02;11.38;;;4.97;;
13163;SDS011;6647;53.688;10.746;2022-09-16T05:34:23;13.63;;;4.93;;
13163;SDS011;6647;53.688;10.746;2022-09-16T05:35:50;12.95;;;5.43;;
13163;SDS011;6647;53.688;10.746;2022-09-16T05:37:11;9.63;;;4.43;;
13163;SDS011;6647;53.688;10.746;2022-09-16T05:38:32;12.07;;;4.85;;
13163;SDS011;6647;53.688;10.746;2022-09-16T05:39:53;3.85;;;3.45;;
13163;SDS011;6647;53.688;10.746;2022-09-16T05:41:14;8.77;;;4.30;;
13163;SDS011;6647;53.688;10.746;2022-09-16T05:42:35;8.93;;;5.10;;
13163;SDS011;6647;53.688;10.746;2022-09-16T05:43:57;7.18;;;4.93;;
13163;SDS011;6647;53.688;10.746;2022-09-16T05:45:19;20.63;;;4.68;;
13163;SDS011;6647;53.688;10.746;2022-09-16T05:46:40;7.35;;;4.55;;
13163;SDS011;6647;53.688;10.746;2022-09-16T05:48:01;7.80;;;4.60;;
13163;SDS011;6647;53.688;10.746;2022-09-16T05:49:22;13.50;;;4.80;;
13163;SDS011;6647;53.688;10.746;2022-09-16T05:52:13;10.75;;;4.82;;
13163;SDS011;6647;53.688;10.746;2022-09-16T05:53:34;16.40;;;5.35;;
13163;SDS011;6647;53.688;10.746;2022-09-16T05:54:55;11.52;;;5.30;;
13163;SDS011;6647;53.688;10.746;2022-09-16T05:56:17;16.63;;;4.85;;
13163;SDS011;6647;53.688;10.746;2022-09-16T05:57:40;8.23;;;4.15;;
13163;SDS011;6647;53.688;10.746;2022-09-16T05:59:00;10.95;;;4.10;;
13163;SDS011;6647;53.688;10.746;2022-09-16T06:00:22;9.38;;;4.30;;
13163;SDS011;6647;53.688;10.746;2022-09-16T06:01:43;10.70;;;4.05;;
13163;SDS011;6647;53.688;10.746;2022-09-16T06:03:04;13.82;;;4.90;;
13163;SDS011;6647;53.688;10.746;2022-09-16T06:04:25;11.60;;;4.18;;
13163;SDS011;6647;53.688;10.746;2022-09-16T06:05:46;5.30;;;3.25;;
13163;SDS011;6647;53.688;10.746;2022-09-16T06:07:07;5.80;;;3.47;;
13163;SDS011;6647;53.688;10.746;2022-09-16T06:08:28;8.80;;;3.38;;
13163;SDS011;6647;53.688;10.746;2022-09-16T06:09:50;12.35;;;3.05;;
13163;SDS011;6647;53.688;10.746;2022-09-16T06:11:12;8.10;;;3.50;;
13163;SDS011;6647;53.688;10.746;2022-09-16T06:12:33;8.23;;;3.13;;
13163;SDS011;6647;53.688;10.746;2022-09-16T06:13:54;8.23;;;3.10;;
13163;SDS011;6647;53.688;10.746;2022-09-16T06:15:20;7.85;;;2.30;;
13163;SDS011;6647;53.688;10.746;2022-09-16T06:16:41;4.72;;;2.42;;
13163;SDS011;6647;53.688;10.746;2022-09-16T06:18:02;6.32;;;2.20;;
13163;SDS011;6647;53.688;10.746;2022-09-16T06:19:23;7.18;;;2.20;;
13163;SDS011;6647;53.688;10.746;2022-09-16T06:20:44;7.07;;;2.00;;
13163;SDS011;6647;53.688;10.746;2022-09-16T06:22:05;4.47;;;1.80;;
13163;SDS011;6647;53.688;10.746;2022-09-16T06:23:26;9.10;;;2.30;;
13163;SDS011;6647;53.688;10.746;2022-09-16T06:24:47;11.65;;;3.72;;
13163;SDS011;6647;53.688;10.746;2022-09-16T06:26:13;8.40;;;2.63;;
13163;SDS011;6647;53.688;10.746;2022-09-16T06:27:35;6.22;;;2.30;;
13163;SDS011;6647;53.688;10.746;2022-09-16T06:28:56;4.20;;;2.40;;
13163;SDS011;6647;53.688;10.746;2022-09-16T06:30:17;10.60;;;2.40;;
13163;SDS011;6647;53.688;10.746;2022-09-16T06:31:38;7.10;;;2.58;;
13163;SDS011;6647;53.688;10.746;2022-09-16T06:33:00;5.30;;;2.10;;
13163;SDS011;6647;53.688;10.746;2022-09-16T06:34:20;6.75;;;2.15;;
13163;SDS011;6647;53.688;10.746;2022-09-16T06:35:41;12.23;;;2.40;;
13163;SDS011;6647;53.688;10.746;2022-09-16T06:37:02;6.25;;;2.10;;
13163;SDS011;6647;53.688;10.746;2022-09-16T06:38:23;7.05;;;2.35;;
13163;SDS011;6647;53.688;10.746;2022-09-16T06:39:47;10.25;;;2.17;;
13163;SDS011;6647;53.688;10.746;2022-09-16T06:41:08;9.50;;;2.08;;
13163;SDS011;6647;53.688;10.746;2022-09-16T06:42:30;11.32;;;2.83;;
13163;SDS011;6647;53.688;10.746;2022-09-16T06:43:51;10.07;;;2.13;;
13163;SDS011;6647;53.688;10.746;2022-09-16T06:45:12;6.18;;;2.45;;
13163;SDS011;6647;53.688;10.746;2022-09-16T06:46:33;9.73;;;2.45;;
13163;SDS011;6647;53.688;10.746;2022-09-16T06:47:57;5.60;;;1.95;;
13163;SDS011;6647;53.688;10.746;2022-09-16T06:49:19;7.70;;;2.10;;
13163;SDS011;6647;53.688;10.746;2022-09-16T06:50:40;14.40;;;2.53;;
13163;SDS011;6647;53.688;10.746;2022-09-16T06:52:01;6.28;;;2.22;;
13163;SDS011;6647;53.688;10.746;2022-09-16T06:53:22;14.05;;;3.30;;
13163;SDS011;6647;53.688;10.746;2022-09-16T06:54:43;9.18;;;1.98;;
13163;SDS011;6647;53.688;10.746;2022-09-16T06:56:04;11.27;;;2.75;;
13163;SDS011;6647;53.688;10.746;2022-09-16T06:57:27;6.78;;;2.60;;
13163;SDS011;6647;53.688;10.746;2022-09-16T06:58:49;9.75;;;2.65;;
13163;SDS011;6647;53.688;10.746;2022-09-16T07:00:15;15.50;;;3.05;;
13163;SDS011;6647;53.688;10.746;2022-09-16T07:01:35;7.85;;;2.90;;
13163;SDS011;6647;53.688;10.746;2022-09-16T07:02:56;8.88;;;3.28;;
13163;SDS011;6647;53.688;10.746;2022-09-16T07:04:17;5.80;;;2.50;;
13163;SDS011;6647;53.688;10.746;2022-09-16T07:05:38;6.35;;;2.30;;
13163;SDS011;6647;53.688;10.746;2022-09-16T07:06:59;9.57;;;2.00;;
13163;SDS011;6647;53.688;10.746;2022-09-16T07:08:20;4.88;;;1.90;;
13163;SDS011;6647;53.688;10.746;2022-09-16T07:09:41;12.43;;;3.17;;
13163;SDS011;6647;53.688;10.746;2022-09-16T07:12:24;8.15;;;2.25;;
13163;SDS011;6647;53.688;10.746;2022-09-16T07:13:45;7.60;;;2.13;;
13163;SDS011;6647;53.688;10.746;2022-09-16T07:15:07;12.70;;;2.80;;
13163;SDS011;6647;53.688;10.746;2022-09-16T07:16:28;7.15;;;1.65;;
13163;SDS011;6647;53.688;10.746;2022-09-16T07:17:53;7.35;;;2.03;;
13163;SDS011;6647;53.688;10.746;2022-09-16T07:19:14;5.95;;;2.28;;
13163;SDS011;6647;53.688;10.746;2022-09-16T07:20:35;11.68;;;2.20;;
13163;SDS011;6647;53.688;10.746;2022-09-16T07:21:56;8.30;;;2.53;;
13163;SDS011;6647;53.688;10.746;2022-09-16T07:23:17;9.90;;;2.40;;
13163;SDS011;6647;53.688;10.746;2022-09-16T07:24:38;7.32;;;1.92;;
13163;SDS011;6647;53.688;10.746;2022-09-16T07:26:00;3.00;;;1.50;;
13163;SDS011;6647;53.688;10.746;2022-09-16T07:27:25;5.28;;;1.60;;
13163;SDS011;6647;53.688;10.746;2022-09-16T07:28:47;3.15;;;1.60;;
13163;SDS011;6647;53.688;10.746;2022-09-16T07:30:09;9.70;;;2.20;;
13163;SDS011;6647;53.688;10.746;2022-09-16T07:31:31;9.18;;;1.85;;
13163;SDS011;6647;53.688;10.746;2022-09-16T07:32:53;7.43;;;1.85;;
13163;SDS011;6647;53.688;10.746;2022-09-16T07:34:14;13.98;;;2.50;;
13163;SDS011;6647;53.688;10.746;2022-09-16T07:35:35;6.40;;;1.98;;
13163;SDS011;6647;53.688;10.746;2022-09-16T07:36:56;8.93;;;1.83;;
13163;SDS011;6647;53.688;10.746;2022-09-16T07:38:18;6.75;;;2.00;;
13163;SDS011;6647;53.688;10.746;2022-09-16T07:39:39;11.82;;;2.38;;
13163;SDS011;6647;53.688;10.746;2022-09-16T07:41:11;11.52;;;3.65;;
13163;SDS011;6647;53.688;10.746;2022-09-16T07:42:35;10.13;;;2.10;;
13163;SDS011;6647;53.688;10.746;2022-09-16T07:43:57;8.18;;;1.90;;
13163;SDS011;6647;53.688;10.746;2022-09-16T07:45:19;4.25;;;1.88;;
13163;SDS011;6647;53.688;10.746;2022-09-16T07:46:40;13.98;;;2.55;;
13163;SDS011;6647;53.688;10.746;2022-09-16T07:48:01;5.70;;;1.83;;
13163;SDS011;6647;53.688;10.746;2022-09-16T07:49:22;4.10;;;1.80;;
13163;SDS011;6647;53.688;10.746;2022-09-16T07:50:43;7.40;;;1.67;;
13163;SDS011;6647;53.688;10.746;2022-09-16T07:52:03;13.10;;;2.58;;
13163;SDS011;6647;53.688;10.746;2022-09-16T07:53:25;9.45;;;1.92;;
13163;SDS011;6647;53.688;10.746;2022-09-16T07:54:48;15.85;;;2.15;;
13163;SDS011;6647;53.688;10.746;2022-09-16T07:56:11;9.13;;;1.65;;
13163;SDS011;6647;53.688;10.746;2022-09-16T07:57:34;11.68;;;2.00;;
13163;SDS011;6647;53.688;10.746;2022-09-16T07:58:55;11.68;;;1.75;;
13163;SDS011;6647;53.688;10.746;2022-09-16T08:00:16;6.53;;;1.55;;
13163;SDS011;6647;53.688;10.746;2022-09-16T08:01:37;6.18;;;1.25;;
13163;SDS011;6647;53.688;10.746;2022-09-16T08:02:58;15.95;;;1.73;;
13163;SDS011;6647;53.688;10.746;2022-09-16T08:04:19;10.02;;;2.25;;
13163;SDS011;6647;53.688;10.746;2022-09-16T08:05:41;12.98;;;1.80;;
13163;SDS011;6647;53.688;10.746;2022-09-16T08:07:01;9.57;;;2.47;;
13163;SDS011;6647;53.688;10.746;2022-09-16T08:08:22;8.80;;;1.80;;
13163;SDS011;6647;53.688;10.746;2022-09-16T08:09:43;10.10;;;2.10;;
13163;SDS011;6647;53.688;10.746;2022-09-16T08:11:04;17.75;;;2.50;;
13163;SDS011;6647;53.688;10.746;2022-09-16T08:12:26;13.40;;;1.70;;
13163;SDS011;6647;53.688;10.746;2022-09-16T08:13:51;6.10;;;1.52;;
13163;SDS011;6647;53.688;10.746;2022-09-16T08:15:12;10.07;;;1.90;;
13163;SDS011;6647;53.688;10.746;2022-09-16T08:16:33;9.55;;;1.88;;
13163;SDS011;6647;53.688;10.746;2022-09-16T08:17:54;5.15;;;1.38;;
13163;SDS011;6647;53.688;10.746;2022-09-16T08:19:15;7.47;;;1.55;;
13163;SDS011;6647;53.688;10.746;2022-09-16T08:20:36;9.50;;;1.65;;
13163;SDS011;6647;53.688;10.746;2022-09-16T08:21:57;11.77;;;2.35;;
13163;SDS011;6647;53.688;10.746;2022-09-16T08:23:18;9.40;;;1.88;;
13163;SDS011;6647;53.688;10.746;2022-09-16T08:24:39;8.95;;;2.00;;
13163;SDS011;6647;53.688;10.746;2022-09-16T08:26:00;10.43;;;1.77;;
13163;SDS011;6647;53.688;10.746;2022-09-16T08:27:21;12.35;;;1.10;;
13163;SDS011;6647;53.688;10.746;2022-09-16T08:28:43;13.52;;;1.75;;
13163;SDS011;6647;53.688;10.746;2022-09-16T08:30:05;11.43;;;2.22;;
13163;SDS011;6647;53.688;10.746;2022-09-16T08:31:26;13.65;;;2.30;;
13163;SDS011;6647;53.688;10.746;2022-09-16T08:32:47;8.90;;;1.70;;
13163;SDS011;6647;53.688;10.746;2022-09-16T08:34:16;7.20;;;1.30;;
13163;SDS011;6647;53.688;10.746;2022-09-16T08:35:37;8.98;;;1.65;;
13163;SDS011;6647;53.688;10.746;2022-09-16T08:36:58;15.43;;;1.77;;
13163;SDS011;6647;53.688;10.746;2022-09-16T08:38:19;8.07;;;1.42;;
13163;SDS011;6647;53.688;10.746;2022-09-16T08:39:39;7.60;;;1.10;;
13163;SDS011;6647;53.688;10.746;2022-09-16T08:41:05;9.70;;;1.73;;
13163;SDS011;6647;53.688;10.746;2022-09-16T08:45:57;7.70;;;2.47;;
13163;SDS011;6647;53.688;10.746;2022-09-16T08:48:55;9.20;;;1.98;;
13163;SDS011;6647;53.688;10.746;2022-09-16T08:50:27;13.50;;;1.60;;
13163;SDS011;6647;53.688;10.746;2022-09-16T08:51:51;6.65;;;1.17;;
13163;SDS011;6647;53.688;10.746;2022-09-16T08:53:33;16.95;;;2.58;;
13163;SDS011;6647;53.688;10.746;2022-09-16T08:55:03;10.73;;;2.35;;
13163;SDS011;6647;53.688;10.746;2022-09-16T08:56:30;7.15;;;1.75;;
13163;SDS011;6647;53.688;10.746;2022-09-16T08:57:57;6.07;;;1.75;;
13163;SDS011;6647;53.688;10.746;2022-09-16T08:59:27;5.45;;;1.73;;
13163;SDS011;6647;53.688;10.746;2022-09-16T09:00:55;12.95;;;1.75;;
13163;SDS011;6647;53.688;10.746;2022-09-16T09:02:22;6.60;;;1.50;;
13163;SDS011;6647;53.688;10.746;2022-09-16T09:04:05;8.52;;;1.55;;
13163;SDS011;6647;53.688;10.746;2022-09-16T09:08:24;7.07;;;1.30;;
13163;SDS011;6647;53.688;10.746;2022-09-16T09:09:54;13.35;;;1.95;;
13163;SDS011;6647;53.688;10.746;2022-09-16T09:11:49;9.80;;;1.33;;